Winkelman, Arizona
Current Conditions -  °F | °C
As of 7:35 AM on Monday 26 Jan 2015 (Local Time) from KAVQ Reporting Station
Clear Clear  
Wind Chill: 57°   Ceiling: Unl
Heat Index: 57°   Visibility: 10mi
Dew Point: 25°   Wind: 7mph
Humidity: 30%   Direction: 110°ESE
Pressure: 30.13"   Gusts: NA
Location:  32.99°N, 110.77°W
Report Text: KAVQ 261435Z AUTO 11006KT 10SM CLR 14/M04 A3013 RMK AO2 T01371038
Loading
Personal Weather Stations






























Interactive Weather Map New forecast layout! Learn more

10-Day Weather Forecast

Advertisements
Track Severe Weather on mobile